Terminal Aerodrome Forecast
Issued by NWS Sioux Falls, SD

Home | Current Version | Previous Version | Graphics & Text | Print | Product List | Glossary Off
Versions: 1 2 3 4 5 6 7 8 9 10 11 12 13 14 15 16

000
FTUS43 KFSD 220529
TAFHON
TAF
KHON 220529Z 2206/2306 31006KT P6SM OVC015
     FM221400 31008KT 3SM BR OVC008
     FM221700 31009KT P6SM OVC010
     FM222000 31010KT P6SM OVC025
     FM222100 31010KT P6SM OVC035
     FM230500 28006KT P6SM BKN035=

USA.gov is the U.S. government's official web portal to all federal, state and local government web resources and services.